createdAt,value
2023-02-05T00:02:31.682Z,102136.25
2023-02-05T00:05:18.519Z,102137.68
2023-02-05T00:08:05.618Z,102141.25
2023-02-05T00:10:52.776Z,102143.69
2023-02-05T00:13:41.860Z,102141.20
2023-02-05T00:16:28.992Z,102144.00
2023-02-05T00:19:15.969Z,102146.27
2023-02-05T00:22:03.377Z,102145.08
2023-02-05T00:24:50.124Z,102142.23
2023-02-05T00:27:36.636Z,102136.17
2023-02-05T00:30:23.883Z,102138.45
2023-02-05T00:33:10.393Z,102138.95
2023-02-05T00:35:57.021Z,102139.64
2023-02-05T00:38:45.090Z,102139.82
2023-02-05T00:41:31.651Z,102140.52
2023-02-05T00:44:18.305Z,102138.66
2023-02-05T00:47:05.444Z,102137.15
2023-02-05T00:49:51.877Z,102135.15
2023-02-05T00:52:38.577Z,102137.70
2023-02-05T00:55:26.314Z,102136.67
2023-02-05T00:58:13.377Z,102144.63
2023-02-05T01:00:59.847Z,102150.84
2023-02-05T01:03:46.349Z,102156.02
2023-02-05T01:06:33.205Z,102158.12
2023-02-05T01:09:19.809Z,102156.44
2023-02-05T01:12:06.876Z,102155.95
2023-02-05T01:14:54.268Z,102152.53
2023-02-05T01:17:41.082Z,102147.59
2023-02-05T01:20:28.380Z,102142.31
2023-02-05T01:23:15.265Z,102140.77
2023-02-05T01:26:02.243Z,102138.67
2023-02-05T01:28:49.520Z,102138.69
2023-02-05T01:31:36.246Z,102134.91
2023-02-05T01:34:23.044Z,102133.02
2023-02-05T01:37:09.531Z,102134.58
2023-02-05T01:39:57.138Z,102131.85
2023-02-05T01:42:43.906Z,102136.64
2023-02-05T01:45:32.858Z,102133.91
2023-02-05T01:48:25.031Z,102132.89
2023-02-05T01:51:14.517Z,102128.77
2023-02-05T01:54:01.944Z,102128.95
2023-02-05T01:57:17.422Z,102128.08
2023-02-05T02:00:05.250Z,102131.14
2023-02-05T02:02:52.808Z,102117.52
2023-02-05T02:05:41.068Z,102113.94
2023-02-05T02:08:27.708Z,102119.40
2023-02-05T02:11:17.461Z,102114.98
2023-02-05T02:14:07.117Z,102117.02
2023-02-05T02:16:53.724Z,102120.29
2023-02-05T02:20:00.565Z,102122.18
2023-02-05T02:22:56.349Z,102122.70
2023-02-05T02:26:16.775Z,102124.71
2023-02-05T02:29:04.415Z,102128.50
2023-02-05T02:32:10.899Z,102125.40
2023-02-05T02:35:40.097Z,102130.19
2023-02-05T02:38:32.150Z,102128.81
2023-02-05T02:41:32.528Z,102137.57
2023-02-05T02:44:45.790Z,102143.18
2023-02-05T02:47:38.386Z,102144.89
2023-02-05T02:50:36.011Z,102148.52
2023-02-05T02:53:28.415Z,102150.07
2023-02-05T02:56:17.115Z,102156.74
2023-02-05T02:59:10.866Z,102158.30
2023-02-05T03:02:02.560Z,102159.44
2023-02-05T03:04:58.998Z,102161.15
2023-02-05T03:07:54.516Z,102162.38
2023-02-05T03:10:48.016Z,102164.25
2023-02-05T03:13:35.497Z,102167.98
2023-02-05T03:16:24.649Z,102168.89
2023-02-05T03:19:11.535Z,102161.70
2023-02-05T03:22:02.964Z,102165.98
2023-02-05T03:24:51.099Z,102160.19
2023-02-05T03:27:38.671Z,102162.22
2023-02-05T03:30:31.344Z,102163.21
2023-02-05T03:38:29.383Z,102155.80
2023-02-05T03:41:45.624Z,102151.47
2023-02-05T03:45:01.404Z,102155.61
2023-02-05T03:48:11.942Z,102154.19
2023-02-05T03:51:22.971Z,102150.80
2023-02-05T03:54:27.248Z,102150.83
2023-02-05T03:57:28.797Z,102148.45
2023-02-05T04:00:16.017Z,102142.34
2023-02-05T04:03:03.227Z,102136.56
2023-02-05T04:05:49.685Z,102152.27
2023-02-05T04:08:36.285Z,102150.23
2023-02-05T04:11:23.411Z,102158.60
2023-02-05T04:14:09.875Z,102157.23
2023-02-05T04:16:56.339Z,102157.40
2023-02-05T04:19:42.877Z,102151.27
2023-02-05T04:22:29.641Z,102152.41
2023-02-05T04:25:16.431Z,102155.48
2023-02-05T04:28:03.306Z,102152.95
2023-02-05T04:30:49.982Z,102160.80
2023-02-05T04:33:36.858Z,102165.23
2023-02-05T04:36:23.225Z,102169.27
2023-02-05T04:39:09.912Z,102170.63
2023-02-05T04:41:56.667Z,102171.68
2023-02-05T04:44:43.399Z,102173.71
2023-02-05T04:47:30.677Z,102172.17
2023-02-05T04:50:18.507Z,102175.92
2023-02-05T04:53:05.225Z,102175.98
2023-02-05T04:55:52.052Z,102182.58
2023-02-05T04:58:39.531Z,102182.23
2023-02-05T05:01:26.151Z,102181.41
2023-02-05T05:04:12.860Z,102181.70
2023-02-05T05:06:59.545Z,102184.80
2023-02-05T05:09:45.914Z,102182.53
2023-02-05T05:12:33.187Z,102178.29
2023-02-05T05:15:19.841Z,102175.58
2023-02-05T05:18:06.503Z,102178.49
2023-02-05T05:20:53.331Z,102180.58
2023-02-05T05:23:39.879Z,102182.42
2023-02-05T05:26:26.645Z,102187.35
2023-02-05T05:29:14.457Z,102187.84
2023-02-05T05:32:01.744Z,102189.22
2023-02-05T05:34:48.445Z,102187.17
2023-02-05T05:37:34.855Z,102186.85
2023-02-05T05:40:39.741Z,102192.14
2023-02-05T05:43:45.306Z,102194.40
2023-02-05T05:46:32.006Z,102200.71
2023-02-05T05:49:18.649Z,102204.00
2023-02-05T05:52:05.518Z,102207.23
2023-02-05T05:55:18.865Z,102209.98
2023-02-05T05:58:07.033Z,102214.35
2023-02-05T06:00:54.998Z,102217.96
2023-02-05T06:03:43.315Z,102220.23
2023-02-05T06:06:29.587Z,102224.35
2023-02-05T06:09:16.330Z,102228.41
2023-02-05T06:12:03.163Z,102226.39
2023-02-05T06:14:49.494Z,102228.48
2023-02-05T06:17:36.327Z,102233.53
2023-02-05T06:20:22.878Z,102233.55
2023-02-05T06:23:10.167Z,102235.41
2023-02-05T06:25:57.187Z,102240.25
2023-02-05T06:28:43.833Z,102238.04
2023-02-05T06:31:33.246Z,102241.27
2023-02-05T06:34:20.144Z,102248.41
2023-02-05T06:37:10.230Z,102252.18
2023-02-05T06:39:57.960Z,102255.48
2023-02-05T06:42:46.067Z,102256.71
2023-02-05T06:45:32.969Z,102255.70
2023-02-05T06:48:22.641Z,102259.98
2023-02-05T06:51:11.379Z,102262.40
2023-02-05T06:54:00.645Z,102262.92
2023-02-05T06:56:47.903Z,102263.63
2023-02-05T06:59:34.524Z,102264.97
2023-02-05T07:02:24.680Z,102270.83
2023-02-05T07:05:15.219Z,102271.16
2023-02-05T07:08:04.251Z,102265.66
2023-02-05T07:10:51.546Z,102271.30
2023-02-05T07:13:38.387Z,102270.64
2023-02-05T07:16:25.083Z,102276.00
2023-02-05T07:19:11.783Z,102284.96
2023-02-05T07:21:58.462Z,102291.23
2023-02-05T07:24:45.404Z,102289.70
2023-02-05T07:27:32.950Z,102295.05
2023-02-05T07:30:22.289Z,102289.09
2023-02-05T07:33:10.249Z,102296.13
2023-02-05T07:36:08.125Z,102291.91
2023-02-05T07:38:54.810Z,102291.63
2023-02-05T07:41:41.177Z,102295.95
2023-02-05T07:44:27.648Z,102299.39
2023-02-05T07:47:16.003Z,102302.84
2023-02-05T07:50:02.521Z,102302.86
2023-02-05T07:52:50.359Z,102305.59
2023-02-05T07:55:36.674Z,102304.56
2023-02-05T07:58:26.102Z,102303.33
2023-02-05T08:01:13.536Z,102306.70
2023-02-05T08:04:02.274Z,102303.63
2023-02-05T08:06:49.690Z,102303.23
2023-02-05T08:09:36.266Z,102304.20
2023-02-05T08:12:23.009Z,102306.83
2023-02-05T08:15:10.095Z,102309.39
2023-02-05T08:17:56.476Z,102307.30
2023-02-05T08:20:43.040Z,102304.97
2023-02-05T08:23:29.622Z,102313.73
2023-02-05T08:26:17.837Z,102327.48
2023-02-05T08:29:04.841Z,102339.62
2023-02-05T08:31:51.351Z,102343.91
2023-02-05T08:34:45.552Z,102345.67
2023-02-05T08:37:33.043Z,102350.07
2023-02-05T08:40:20.450Z,102350.67
2023-02-05T08:43:08.699Z,102350.60
2023-02-05T08:45:55.294Z,102353.16
2023-02-05T08:48:42.416Z,102354.05
2023-02-05T08:51:30.627Z,102352.98
2023-02-05T08:54:17.275Z,102356.17
2023-02-05T08:57:05.928Z,102353.49
2023-02-05T08:59:55.935Z,102356.20
2023-02-05T09:02:43.357Z,102358.42
2023-02-05T09:05:29.847Z,102362.63
2023-02-05T09:08:16.634Z,102371.71
2023-02-05T09:11:03.679Z,102373.49
2023-02-05T09:13:54.328Z,102386.92
2023-02-05T09:16:41.569Z,102389.23
2023-02-05T09:19:28.416Z,102388.27
2023-02-05T09:22:15.019Z,102390.48
2023-02-05T09:25:03.606Z,102396.76
2023-02-05T09:27:50.275Z,102399.86
2023-02-05T09:30:39.169Z,102404.70
2023-02-05T09:33:26.569Z,102408.80
2023-02-05T09:36:18.873Z,102412.48
2023-02-05T09:39:16.843Z,102419.45
2023-02-05T09:42:35.073Z,102415.92
2023-02-05T09:45:42.718Z,102414.15
2023-02-05T09:48:49.648Z,102414.05
2023-02-05T09:51:46.395Z,102410.64
2023-02-05T09:54:38.735Z,102412.01
2023-02-05T09:57:39.545Z,102413.72
2023-02-05T10:00:30.737Z,102409.95
2023-02-05T10:04:01.086Z,102415.44
2023-02-05T10:06:54.595Z,102415.61
2023-02-05T10:09:54.892Z,102417.67
2023-02-05T10:13:06.404Z,102417.99
2023-02-05T10:16:40.427Z,102417.83
2023-02-05T10:20:03.280Z,102414.58
2023-02-05T10:23:17.747Z,102414.75
2023-02-05T10:26:12.365Z,102413.73
2023-02-05T10:29:35.666Z,102417.48
2023-02-05T10:32:24.629Z,102410.80
2023-02-05T10:35:24.976Z,102410.76
2023-02-05T10:38:21.289Z,102405.94
2023-02-05T10:41:20.206Z,102401.13
2023-02-05T10:44:22.349Z,102404.70
2023-02-05T10:47:41.609Z,102399.52
2023-02-05T10:50:47.724Z,102400.66
2023-02-05T10:53:36.352Z,102399.02
2023-02-05T10:56:25.370Z,102392.30
2023-02-05T10:59:22.410Z,102385.98
2023-02-05T11:02:09.888Z,102384.13
2023-02-05T11:05:01.589Z,102383.48
2023-02-05T11:07:50.969Z,102383.44
2023-02-05T11:10:38.233Z,102377.69
2023-02-05T11:13:25.155Z,102377.10
2023-02-05T11:16:12.786Z,102372.56
2023-02-05T11:19:01.455Z,102368.09
2023-02-05T11:21:55.713Z,102368.07
2023-02-05T11:24:42.684Z,102363.84
2023-02-05T11:27:32.828Z,102363.85
2023-02-05T11:30:55.883Z,102358.93
2023-02-05T11:34:22.014Z,102362.00
2023-02-05T11:38:02.331Z,102363.23
2023-02-05T11:41:58.055Z,102365.83
2023-02-05T11:45:45.171Z,102364.13
2023-02-05T11:52:44.950Z,102363.18
2023-02-05T11:56:56.337Z,102360.11
2023-02-05T12:00:29.947Z,102360.33
2023-02-05T12:04:11.783Z,102362.89
2023-02-05T12:07:57.653Z,102361.41
2023-02-05T12:12:07.048Z,102357.45
2023-02-05T12:15:35.617Z,102354.16
2023-02-05T12:19:55.112Z,102357.42
2023-02-05T12:23:57.521Z,102358.95
2023-02-05T12:30:31.741Z,102351.91
2023-02-05T12:34:33.563Z,102354.77
2023-02-05T12:38:51.827Z,102358.63
2023-02-05T12:42:43.199Z,102352.94
2023-02-05T12:51:32.876Z,102351.09
2023-02-05T12:55:24.384Z,102349.23
2023-02-05T12:58:54.052Z,102345.75
2023-02-05T13:02:11.931Z,102343.59
2023-02-05T13:09:53.534Z,102343.16
2023-02-05T13:13:39.925Z,102344.64
2023-02-05T13:17:42.001Z,102342.73
2023-02-05T13:21:49.406Z,102340.35
2023-02-05T13:26:05.148Z,102346.91
2023-02-05T13:29:57.721Z,102344.88
2023-02-05T13:33:02.997Z,102349.15
2023-02-05T13:36:40.683Z,102352.23
2023-02-05T13:40:42.273Z,102361.00
2023-02-05T13:47:40.178Z,102357.40
2023-02-05T13:50:55.376Z,102361.17
2023-02-05T13:54:17.418Z,102362.71
2023-02-05T13:57:41.707Z,102358.80
2023-02-05T14:00:29.254Z,102359.31
2023-02-05T14:03:31.772Z,102362.55
2023-02-05T14:06:38.888Z,102363.94
2023-02-05T14:09:37.756Z,102360.01
2023-02-05T14:12:30.470Z,102366.52
2023-02-05T14:15:18.408Z,102365.14
2023-02-05T14:18:08.027Z,102361.20
2023-02-05T14:20:54.657Z,102357.78
2023-02-05T14:23:47.863Z,102361.21
2023-02-05T14:26:51.417Z,102360.03
2023-02-05T14:29:47.122Z,102357.29
2023-02-05T14:32:40.120Z,102353.31
2023-02-05T14:35:33.311Z,102354.85
2023-02-05T14:38:31.252Z,102352.83
2023-02-05T14:41:29.118Z,102353.33
2023-02-05T14:44:23.804Z,102363.45
2023-02-05T14:47:27.488Z,102369.28
2023-02-05T14:50:28.438Z,102368.63
2023-02-05T14:53:30.265Z,102367.41
2023-02-05T14:56:40.809Z,102371.03
2023-02-05T14:59:38.492Z,102377.55
2023-02-05T15:02:59.151Z,102383.21
2023-02-05T15:05:50.698Z,102387.67
2023-02-05T15:08:49.306Z,102385.61
2023-02-05T15:12:28.289Z,102392.98
2023-02-05T15:15:35.745Z,102399.34
2023-02-05T15:18:33.131Z,102406.52
2023-02-05T15:21:26.068Z,102411.65
2023-02-05T15:24:24.792Z,102408.21
2023-02-05T15:27:23.627Z,102416.46
2023-02-05T15:30:18.473Z,102413.05
2023-02-05T15:33:30.061Z,102413.55
2023-02-05T15:36:43.768Z,102416.78
2023-02-05T15:39:58.497Z,102421.05
2023-02-05T15:42:51.898Z,102422.09
2023-02-05T15:45:44.971Z,102415.59
2023-02-05T15:48:34.775Z,102410.30
2023-02-05T15:51:28.132Z,102410.63
2023-02-05T15:54:21.353Z,102412.52
2023-02-05T15:57:16.280Z,102419.38
2023-02-05T16:00:07.975Z,102414.21
2023-02-05T16:02:57.875Z,102411.48
2023-02-05T16:05:52.960Z,102412.33
2023-02-05T16:08:47.416Z,102413.17
2023-02-05T16:11:35.952Z,102417.65
2023-02-05T16:14:33.734Z,102418.52
2023-02-05T16:17:28.762Z,102422.27
2023-02-05T16:20:32.466Z,102414.73
2023-02-05T16:23:38.147Z,102419.35
2023-02-05T16:26:28.947Z,102414.73
2023-02-05T16:29:36.121Z,102417.83
2023-02-05T16:32:35.736Z,102427.57
2023-02-05T16:35:27.217Z,102435.59
2023-02-05T16:38:20.842Z,102438.54
2023-02-05T16:41:25.944Z,102435.98
2023-02-05T16:44:32.900Z,102440.59
2023-02-05T16:47:20.695Z,102443.83
2023-02-05T16:50:33.163Z,102447.09
2023-02-05T16:53:26.867Z,102450.50
2023-02-05T16:56:27.197Z,102448.27
2023-02-05T16:59:23.340Z,102453.59
2023-02-05T17:02:29.543Z,102456.02
2023-02-05T17:05:28.017Z,102456.02
2023-02-05T17:08:15.072Z,102452.76
2023-02-05T17:11:06.928Z,102458.08
2023-02-05T17:14:12.578Z,102456.71
2023-02-05T17:17:04.610Z,102454.15
2023-02-05T17:20:11.798Z,102453.80
2023-02-05T17:22:59.359Z,102450.73
2023-02-05T17:25:56.081Z,102449.36
2023-02-05T17:28:50.295Z,102446.27
2023-02-05T17:31:39.355Z,102444.92
2023-02-05T17:34:27.122Z,102445.61
2023-02-05T17:37:15.675Z,102443.37
2023-02-05T17:40:02.987Z,102445.94
2023-02-05T17:42:50.280Z,102448.34
2023-02-05T17:45:41.194Z,102460.66
2023-02-05T17:48:28.277Z,102466.63
2023-02-05T17:51:20.744Z,102472.80
2023-02-05T17:54:34.226Z,102474.85
2023-02-05T17:57:22.748Z,102474.00
2023-02-05T18:00:25.296Z,102478.81
2023-02-05T18:03:12.598Z,102481.02
2023-02-05T18:06:00.648Z,102485.67
2023-02-05T18:08:47.944Z,102485.50
2023-02-05T18:11:35.685Z,102485.33
2023-02-05T18:14:23.960Z,102492.68
2023-02-05T18:17:11.487Z,102494.89
2023-02-05T18:19:58.768Z,102497.60
2023-02-05T18:22:49.952Z,102493.46
2023-02-05T18:25:39.483Z,102492.39
2023-02-05T18:28:28.626Z,102490.63
2023-02-05T18:31:16.023Z,102494.83
2023-02-05T18:34:07.392Z,102490.99
2023-02-05T18:36:55.050Z,102484.46
2023-02-05T18:39:43.780Z,102485.77
2023-02-05T18:42:30.937Z,102483.48
2023-02-05T18:45:19.198Z,102484.44
2023-02-05T18:48:06.748Z,102482.33
2023-02-05T18:50:54.808Z,102480.56
2023-02-05T18:53:44.880Z,102477.06
2023-02-05T18:56:32.509Z,102471.52
2023-02-05T18:59:21.498Z,102471.30
2023-02-05T19:02:10.929Z,102474.14
2023-02-05T19:04:58.382Z,102481.27
2023-02-05T19:07:48.235Z,102488.91
2023-02-05T19:10:37.464Z,102487.67
2023-02-05T19:13:25.158Z,102492.23
2023-02-05T19:16:18.413Z,102486.21
2023-02-05T19:19:07.486Z,102489.34
2023-02-05T19:22:00.248Z,102496.66
2023-02-05T19:24:48.419Z,102496.77
2023-02-05T19:27:36.103Z,102487.16
2023-02-05T19:30:24.169Z,102487.93
2023-02-05T19:33:14.895Z,102491.41
2023-02-05T19:36:04.647Z,102493.06
2023-02-05T19:38:52.952Z,102490.27
2023-02-05T19:41:41.847Z,102485.41
2023-02-05T19:44:31.229Z,102489.25
2023-02-05T19:47:18.685Z,102485.28
2023-02-05T19:50:06.055Z,102489.50
2023-02-05T19:52:53.732Z,102493.16
2023-02-05T19:55:40.505Z,102494.27
2023-02-05T19:58:27.577Z,102492.35
2023-02-05T20:01:15.796Z,102490.19
2023-02-05T20:04:09.629Z,102494.38
2023-02-05T20:06:59.914Z,102497.76
2023-02-05T20:09:48.969Z,102510.20
2023-02-05T20:12:35.330Z,102516.11
2023-02-05T20:15:22.052Z,102522.77
2023-02-05T20:18:08.573Z,102521.14
2023-02-05T20:20:57.951Z,102525.38
2023-02-05T20:23:44.853Z,102531.49
2023-02-05T20:26:31.855Z,102532.30
2023-02-05T20:29:36.946Z,102536.13
2023-02-05T20:32:23.485Z,102538.77
2023-02-05T20:35:09.833Z,102538.24
2023-02-05T20:37:56.303Z,102539.30
2023-02-05T20:40:42.886Z,102536.61
2023-02-05T20:43:29.448Z,102534.55
2023-02-05T20:46:16.344Z,102538.23
2023-02-05T20:49:03.549Z,102543.23
2023-02-05T20:51:50.301Z,102547.90
2023-02-05T20:54:36.974Z,102554.45
2023-02-05T20:57:23.184Z,102559.46
2023-02-05T21:00:11.387Z,102558.96
2023-02-05T21:02:57.904Z,102561.45
2023-02-05T21:05:44.756Z,102568.10
2023-02-05T21:08:32.905Z,102573.98
2023-02-05T21:11:21.092Z,102564.58
2023-02-05T21:14:08.446Z,102564.30
2023-02-05T21:16:54.772Z,102566.46
2023-02-05T21:19:41.474Z,102569.70
2023-02-05T21:22:28.961Z,102572.09
2023-02-05T21:25:15.217Z,102575.46
2023-02-05T21:28:01.826Z,102578.35
2023-02-05T21:30:51.252Z,102580.71
2023-02-05T21:33:37.778Z,102588.67
2023-02-05T21:36:25.047Z,102593.14
2023-02-05T21:39:17.656Z,102594.95
2023-02-05T21:42:03.958Z,102594.94
2023-02-05T21:44:53.731Z,102600.19
2023-02-05T21:47:40.343Z,102595.02
2023-02-05T21:50:27.025Z,102589.40
2023-02-05T21:56:30.644Z,102593.83
2023-02-05T21:59:17.238Z,102596.58
2023-02-05T22:02:03.818Z,102593.27
2023-02-05T22:04:50.466Z,102601.61
2023-02-05T22:07:37.329Z,102605.36
2023-02-05T22:10:23.486Z,102607.34
2023-02-05T22:13:16.215Z,102608.30
2023-02-05T22:16:05.425Z,102608.55
2023-02-05T22:18:53.469Z,102613.44
2023-02-05T22:21:42.418Z,102615.75
2023-02-05T22:24:28.968Z,102613.00
2023-02-05T22:27:15.659Z,102611.30
2023-02-05T22:30:02.297Z,102619.64
2023-02-05T22:32:48.686Z,102621.63
2023-02-05T22:35:35.135Z,102614.46
2023-02-05T22:38:21.546Z,102607.46
2023-02-05T22:41:16.712Z,102609.34
2023-02-05T22:44:04.978Z,102609.46
2023-02-05T22:46:52.929Z,102611.24
2023-02-05T22:49:39.479Z,102611.52
2023-02-05T22:52:26.254Z,102608.94
2023-02-05T22:55:12.850Z,102617.55
2023-02-05T22:57:59.609Z,102618.15
2023-02-05T23:00:46.386Z,102613.73
2023-02-05T23:03:34.562Z,102609.08
2023-02-05T23:06:23.901Z,102603.96
2023-02-05T23:09:16.443Z,102595.20
2023-02-05T23:12:03.304Z,102595.55
2023-02-05T23:14:49.910Z,102601.08
2023-02-05T23:17:36.177Z,102602.48
2023-02-05T23:20:22.761Z,102603.78
2023-02-05T23:23:09.392Z,102604.65
2023-02-05T23:25:56.177Z,102610.59
2023-02-05T23:28:42.988Z,102610.20
2023-02-05T23:31:30.325Z,102600.52
2023-02-05T23:34:16.927Z,102606.67
2023-02-05T23:37:03.839Z,102606.88
2023-02-05T23:39:52.489Z,102606.08
2023-02-05T23:42:39.108Z,102611.24
2023-02-05T23:45:25.413Z,102604.66
2023-02-05T23:48:12.478Z,102607.02
2023-02-05T23:50:59.232Z,102602.31
2023-02-05T23:53:45.807Z,102601.58
2023-02-05T23:56:32.325Z,102600.38
2023-02-05T23:59:18.979Z,102595.53
